sensor_id;sensor_type;location;lat;lon;timestamp;P1;durP1;ratioP1;P2;durP2;ratioP2
53287;SDS011;39172;45.550;12.072;2023-07-31T00:03:59;1.45;;;1.20;;
53287;SDS011;39172;45.550;12.072;2023-07-31T00:10:00;1.13;;;0.90;;
53287;SDS011;39172;45.550;12.072;2023-07-31T00:16:01;1.13;;;0.98;;
53287;SDS011;39172;45.550;12.072;2023-07-31T00:22:02;1.10;;;1.00;;
53287;SDS011;39172;45.550;12.072;2023-07-31T00:28:04;0.93;;;0.82;;
53287;SDS011;39172;45.550;12.072;2023-07-31T00:34:06;1.13;;;1.00;;
53287;SDS011;39172;45.550;12.072;2023-07-31T00:40:09;1.08;;;0.70;;
53287;SDS011;39172;45.550;12.072;2023-07-31T00:46:10;1.63;;;1.35;;
53287;SDS011;39172;45.550;12.072;2023-07-31T00:52:11;1.23;;;1.13;;
53287;SDS011;39172;45.550;12.072;2023-07-31T00:58:13;1.42;;;0.90;;
53287;SDS011;39172;45.550;12.072;2023-07-31T01:04:14;0.80;;;0.70;;
53287;SDS011;39172;45.550;12.072;2023-07-31T01:10:18;0.85;;;0.80;;
53287;SDS011;39172;45.550;12.072;2023-07-31T01:16:21;0.80;;;0.80;;
53287;SDS011;39172;45.550;12.072;2023-07-31T01:28:25;1.10;;;0.85;;
53287;SDS011;39172;45.550;12.072;2023-07-31T01:34:28;1.00;;;0.90;;
53287;SDS011;39172;45.550;12.072;2023-07-31T01:40:29;0.88;;;0.70;;
53287;SDS011;39172;45.550;12.072;2023-07-31T01:46:30;1.38;;;1.23;;
53287;SDS011;39172;45.550;12.072;2023-07-31T01:52:31;1.20;;;1.10;;
53287;SDS011;39172;45.550;12.072;2023-07-31T01:58:32;1.02;;;0.85;;
53287;SDS011;39172;45.550;12.072;2023-07-31T02:04:33;1.08;;;0.98;;
53287;SDS011;39172;45.550;12.072;2023-07-31T02:10:35;1.45;;;1.15;;
53287;SDS011;39172;45.550;12.072;2023-07-31T02:16:35;1.20;;;1.10;;
53287;SDS011;39172;45.550;12.072;2023-07-31T02:22:36;1.50;;;1.10;;
53287;SDS011;39172;45.550;12.072;2023-07-31T02:28:37;1.45;;;1.30;;
53287;SDS011;39172;45.550;12.072;2023-07-31T02:34:38;1.30;;;1.20;;
53287;SDS011;39172;45.550;12.072;2023-07-31T02:40:40;1.75;;;1.48;;
53287;SDS011;39172;45.550;12.072;2023-07-31T02:46:42;1.75;;;1.50;;
53287;SDS011;39172;45.550;12.072;2023-07-31T02:52:43;1.52;;;1.42;;
53287;SDS011;39172;45.550;12.072;2023-07-31T02:58:44;1.20;;;1.10;;
53287;SDS011;39172;45.550;12.072;2023-07-31T03:04:45;2.15;;;1.52;;
53287;SDS011;39172;45.550;12.072;2023-07-31T03:10:45;1.90;;;1.60;;
53287;SDS011;39172;45.550;12.072;2023-07-31T03:16:47;1.60;;;1.50;;
53287;SDS011;39172;45.550;12.072;2023-07-31T03:22:48;1.70;;;1.52;;
53287;SDS011;39172;45.550;12.072;2023-07-31T03:28:49;1.85;;;1.65;;
53287;SDS011;39172;45.550;12.072;2023-07-31T03:34:50;1.60;;;1.50;;
53287;SDS011;39172;45.550;12.072;2023-07-31T03:40:52;1.83;;;1.73;;
53287;SDS011;39172;45.550;12.072;2023-07-31T03:46:53;1.70;;;1.50;;
53287;SDS011;39172;45.550;12.072;2023-07-31T03:52:54;1.75;;;1.65;;
53287;SDS011;39172;45.550;12.072;2023-07-31T03:58:57;2.80;;;2.20;;
53287;SDS011;39172;45.550;12.072;2023-07-31T04:04:58;2.22;;;2.03;;
53287;SDS011;39172;45.550;12.072;2023-07-31T04:10:59;2.20;;;2.00;;
53287;SDS011;39172;45.550;12.072;2023-07-31T04:17:00;2.00;;;1.80;;
53287;SDS011;39172;45.550;12.072;2023-07-31T04:23:00;2.35;;;2.03;;
53287;SDS011;39172;45.550;12.072;2023-07-31T04:29:01;1.98;;;1.80;;
53287;SDS011;39172;45.550;12.072;2023-07-31T04:35:03;2.03;;;1.83;;
53287;SDS011;39172;45.550;12.072;2023-07-31T04:41:04;2.15;;;1.88;;
53287;SDS011;39172;45.550;12.072;2023-07-31T04:47:06;2.58;;;1.92;;
53287;SDS011;39172;45.550;12.072;2023-07-31T04:53:07;1.75;;;1.52;;
53287;SDS011;39172;45.550;12.072;2023-07-31T04:59:10;1.88;;;1.70;;
53287;SDS011;39172;45.550;12.072;2023-07-31T05:05:11;2.03;;;1.83;;
53287;SDS011;39172;45.550;12.072;2023-07-31T05:11:12;2.00;;;1.80;;
53287;SDS011;39172;45.550;12.072;2023-07-31T05:17:13;2.50;;;1.70;;
53287;SDS011;39172;45.550;12.072;2023-07-31T05:23:14;2.33;;;1.67;;
53287;SDS011;39172;45.550;12.072;2023-07-31T05:29:15;1.67;;;1.58;;
53287;SDS011;39172;45.550;12.072;2023-07-31T05:35:17;2.50;;;1.90;;
53287;SDS011;39172;45.550;12.072;2023-07-31T05:41:18;1.95;;;1.60;;
53287;SDS011;39172;45.550;12.072;2023-07-31T05:47:19;1.70;;;1.60;;
53287;SDS011;39172;45.550;12.072;2023-07-31T05:53:21;1.40;;;1.30;;
53287;SDS011;39172;45.550;12.072;2023-07-31T05:59:22;2.45;;;1.40;;
53287;SDS011;39172;45.550;12.072;2023-07-31T06:05:23;1.42;;;1.20;;
53287;SDS011;39172;45.550;12.072;2023-07-31T06:11:23;1.60;;;1.35;;
53287;SDS011;39172;45.550;12.072;2023-07-31T06:17:24;2.55;;;1.38;;
53287;SDS011;39172;45.550;12.072;2023-07-31T06:23:26;1.95;;;1.52;;
53287;SDS011;39172;45.550;12.072;2023-07-31T06:29:29;2.20;;;1.27;;
53287;SDS011;39172;45.550;12.072;2023-07-31T06:35:30;1.83;;;1.50;;
53287;SDS011;39172;45.550;12.072;2023-07-31T06:41:31;2.22;;;1.30;;
53287;SDS011;39172;45.550;12.072;2023-07-31T06:47:32;1.50;;;1.25;;
53287;SDS011;39172;45.550;12.072;2023-07-31T06:53:33;1.90;;;1.23;;
53287;SDS011;39172;45.550;12.072;2023-07-31T06:59:34;1.52;;;1.23;;
53287;SDS011;39172;45.550;12.072;2023-07-31T07:05:35;1.10;;;1.00;;
53287;SDS011;39172;45.550;12.072;2023-07-31T07:11:36;1.45;;;1.20;;
53287;SDS011;39172;45.550;12.072;2023-07-31T07:17:38;1.88;;;1.20;;
53287;SDS011;39172;45.550;12.072;2023-07-31T07:23:39;2.20;;;1.40;;
53287;SDS011;39172;45.550;12.072;2023-07-31T07:29:40;1.65;;;1.30;;
53287;SDS011;39172;45.550;12.072;2023-07-31T07:35:41;1.85;;;1.40;;
53287;SDS011;39172;45.550;12.072;2023-07-31T07:41:42;1.80;;;1.10;;
53287;SDS011;39172;45.550;12.072;2023-07-31T07:47:42;1.88;;;1.20;;
53287;SDS011;39172;45.550;12.072;2023-07-31T07:53:43;1.52;;;1.17;;
53287;SDS011;39172;45.550;12.072;2023-07-31T07:59:44;2.13;;;1.10;;
53287;SDS011;39172;45.550;12.072;2023-07-31T08:05:45;6.07;;;1.52;;
53287;SDS011;39172;45.550;12.072;2023-07-31T08:11:46;26.75;;;4.32;;
53287;SDS011;39172;45.550;12.072;2023-07-31T08:17:47;17.63;;;3.63;;
53287;SDS011;39172;45.550;12.072;2023-07-31T08:23:48;9.60;;;2.55;;
53287;SDS011;39172;45.550;12.072;2023-07-31T08:29:49;4.43;;;1.70;;
53287;SDS011;39172;45.550;12.072;2023-07-31T08:35:52;3.72;;;1.60;;
53287;SDS011;39172;45.550;12.072;2023-07-31T08:41:57;2.75;;;1.30;;
53287;SDS011;39172;45.550;12.072;2023-07-31T08:47:58;2.63;;;1.55;;
53287;SDS011;39172;45.550;12.072;2023-07-31T08:54:00;3.42;;;1.40;;
53287;SDS011;39172;45.550;12.072;2023-07-31T09:00:02;2.78;;;1.50;;
53287;SDS011;39172;45.550;12.072;2023-07-31T09:06:03;3.97;;;1.60;;
53287;SDS011;39172;45.550;12.072;2023-07-31T09:12:07;2.42;;;1.40;;
53287;SDS011;39172;45.550;12.072;2023-07-31T09:18:08;3.13;;;1.48;;
53287;SDS011;39172;45.550;12.072;2023-07-31T09:24:09;2.50;;;1.27;;
53287;SDS011;39172;45.550;12.072;2023-07-31T09:30:18;1.90;;;1.30;;
53287;SDS011;39172;45.550;12.072;2023-07-31T09:36:22;1.20;;;1.10;;
53287;SDS011;39172;45.550;12.072;2023-07-31T09:42:26;2.22;;;1.30;;
53287;SDS011;39172;45.550;12.072;2023-07-31T09:48:30;1.42;;;1.33;;
53287;SDS011;39172;45.550;12.072;2023-07-31T09:54:31;1.27;;;1.10;;
53287;SDS011;39172;45.550;12.072;2023-07-31T10:00:32;1.85;;;1.30;;
53287;SDS011;39172;45.550;12.072;2023-07-31T10:06:36;1.65;;;1.20;;
53287;SDS011;39172;45.550;12.072;2023-07-31T10:12:37;1.30;;;0.98;;
53287;SDS011;39172;45.550;12.072;2023-07-31T10:18:38;1.60;;;1.08;;
53287;SDS011;39172;45.550;12.072;2023-07-31T10:24:41;1.58;;;1.30;;
53287;SDS011;39172;45.550;12.072;2023-07-31T10:30:43;1.75;;;1.20;;
53287;SDS011;39172;45.550;12.072;2023-07-31T10:36:45;1.95;;;1.30;;
53287;SDS011;39172;45.550;12.072;2023-07-31T10:42:50;1.60;;;1.10;;
53287;SDS011;39172;45.550;12.072;2023-07-31T10:48:58;2.08;;;1.30;;
53287;SDS011;39172;45.550;12.072;2023-07-31T10:55:13;1.50;;;1.20;;
53287;SDS011;39172;45.550;12.072;2023-07-31T11:01:14;1.58;;;1.10;;
53287;SDS011;39172;45.550;12.072;2023-07-31T11:07:16;1.50;;;1.20;;
53287;SDS011;39172;45.550;12.072;2023-07-31T11:13:17;1.60;;;1.02;;
53287;SDS011;39172;45.550;12.072;2023-07-31T11:19:24;1.20;;;1.10;;
53287;SDS011;39172;45.550;12.072;2023-07-31T11:25:28;2.10;;;1.27;;
53287;SDS011;39172;45.550;12.072;2023-07-31T11:31:29;1.63;;;1.10;;
53287;SDS011;39172;45.550;12.072;2023-07-31T11:37:40;1.75;;;0.93;;
53287;SDS011;39172;45.550;12.072;2023-07-31T11:43:41;2.20;;;1.20;;
53287;SDS011;39172;45.550;12.072;2023-07-31T11:49:43;1.33;;;1.10;;
53287;SDS011;39172;45.550;12.072;2023-07-31T11:55:44;1.75;;;1.20;;
53287;SDS011;39172;45.550;12.072;2023-07-31T12:01:45;1.70;;;0.95;;
53287;SDS011;39172;45.550;12.072;2023-07-31T12:07:47;1.02;;;0.90;;
53287;SDS011;39172;45.550;12.072;2023-07-31T12:13:49;1.20;;;1.00;;
53287;SDS011;39172;45.550;12.072;2023-07-31T12:19:50;1.27;;;0.98;;
53287;SDS011;39172;45.550;12.072;2023-07-31T12:25:59;1.35;;;1.10;;
53287;SDS011;39172;45.550;12.072;2023-07-31T12:32:01;1.10;;;0.93;;
53287;SDS011;39172;45.550;12.072;2023-07-31T12:38:02;1.35;;;1.20;;
53287;SDS011;39172;45.550;12.072;2023-07-31T12:44:03;1.20;;;0.95;;
53287;SDS011;39172;45.550;12.072;2023-07-31T12:50:05;1.60;;;1.00;;
53287;SDS011;39172;45.550;12.072;2023-07-31T12:56:06;1.27;;;0.93;;
53287;SDS011;39172;45.550;12.072;2023-07-31T13:02:07;1.67;;;1.00;;
53287;SDS011;39172;45.550;12.072;2023-07-31T13:08:08;2.25;;;1.27;;
53287;SDS011;39172;45.550;12.072;2023-07-31T13:14:09;1.58;;;1.10;;
53287;SDS011;39172;45.550;12.072;2023-07-31T13:20:10;8.45;;;7.57;;
53287;SDS011;39172;45.550;12.072;2023-07-31T13:26:12;10.82;;;9.73;;
53287;SDS011;39172;45.550;12.072;2023-07-31T13:32:13;3.80;;;3.03;;
53287;SDS011;39172;45.550;12.072;2023-07-31T13:38:14;2.42;;;1.70;;
53287;SDS011;39172;45.550;12.072;2023-07-31T13:44:15;2.22;;;1.60;;
53287;SDS011;39172;45.550;12.072;2023-07-31T13:50:15;1.30;;;1.20;;
53287;SDS011;39172;45.550;12.072;2023-07-31T13:56:17;1.50;;;1.40;;
53287;SDS011;39172;45.550;12.072;2023-07-31T14:02:18;1.25;;;1.15;;
53287;SDS011;39172;45.550;12.072;2023-07-31T14:08:19;1.48;;;1.23;;
53287;SDS011;39172;45.550;12.072;2023-07-31T14:14:20;1.38;;;1.15;;
53287;SDS011;39172;45.550;12.072;2023-07-31T14:20:22;2.05;;;1.10;;
53287;SDS011;39172;45.550;12.072;2023-07-31T14:26:23;1.42;;;1.13;;
53287;SDS011;39172;45.550;12.072;2023-07-31T14:32:24;1.92;;;1.23;;
53287;SDS011;39172;45.550;12.072;2023-07-31T14:38:26;1.42;;;1.27;;
53287;SDS011;39172;45.550;12.072;2023-07-31T14:44:26;1.15;;;0.95;;
53287;SDS011;39172;45.550;12.072;2023-07-31T14:50:27;1.10;;;1.00;;
53287;SDS011;39172;45.550;12.072;2023-07-31T14:56:28;1.13;;;0.80;;
53287;SDS011;39172;45.550;12.072;2023-07-31T15:02:29;1.00;;;0.90;;
53287;SDS011;39172;45.550;12.072;2023-07-31T15:08:32;1.05;;;0.82;;
53287;SDS011;39172;45.550;12.072;2023-07-31T15:14:34;1.77;;;1.00;;
53287;SDS011;39172;45.550;12.072;2023-07-31T15:20:35;1.38;;;1.20;;
53287;SDS011;39172;45.550;12.072;2023-07-31T15:26:36;1.23;;;1.00;;
53287;SDS011;39172;45.550;12.072;2023-07-31T15:32:37;1.10;;;0.90;;
53287;SDS011;39172;45.550;12.072;2023-07-31T15:38:39;1.75;;;1.20;;
53287;SDS011;39172;45.550;12.072;2023-07-31T15:44:41;1.05;;;0.90;;
53287;SDS011;39172;45.550;12.072;2023-07-31T15:50:42;1.08;;;0.90;;
53287;SDS011;39172;45.550;12.072;2023-07-31T15:56:44;1.10;;;1.00;;
53287;SDS011;39172;45.550;12.072;2023-07-31T16:02:45;1.15;;;0.95;;
53287;SDS011;39172;45.550;12.072;2023-07-31T16:08:46;1.10;;;1.00;;
53287;SDS011;39172;45.550;12.072;2023-07-31T16:14:47;1.38;;;0.90;;
53287;SDS011;39172;45.550;12.072;2023-07-31T16:20:48;0.90;;;0.80;;
53287;SDS011;39172;45.550;12.072;2023-07-31T16:26:49;1.05;;;0.95;;
53287;SDS011;39172;45.550;12.072;2023-07-31T16:32:50;1.00;;;0.90;;
53287;SDS011;39172;45.550;12.072;2023-07-31T16:38:52;1.00;;;0.90;;
53287;SDS011;39172;45.550;12.072;2023-07-31T16:44:53;0.73;;;0.73;;
53287;SDS011;39172;45.550;12.072;2023-07-31T16:50:54;0.90;;;0.73;;
53287;SDS011;39172;45.550;12.072;2023-07-31T16:56:55;0.90;;;0.70;;
53287;SDS011;39172;45.550;12.072;2023-07-31T17:02:56;1.02;;;0.80;;
53287;SDS011;39172;45.550;12.072;2023-07-31T17:08:57;0.70;;;0.70;;
53287;SDS011;39172;45.550;12.072;2023-07-31T17:14:58;0.90;;;0.70;;
53287;SDS011;39172;45.550;12.072;2023-07-31T17:20:59;1.25;;;0.98;;
53287;SDS011;39172;45.550;12.072;2023-07-31T17:27:00;1.60;;;1.05;;
53287;SDS011;39172;45.550;12.072;2023-07-31T17:33:01;1.65;;;1.00;;
53287;SDS011;39172;45.550;12.072;2023-07-31T17:39:02;1.63;;;0.90;;
53287;SDS011;39172;45.550;12.072;2023-07-31T17:45:04;1.25;;;1.15;;
53287;SDS011;39172;45.550;12.072;2023-07-31T17:51:05;1.80;;;1.30;;
53287;SDS011;39172;45.550;12.072;2023-07-31T17:57:06;1.60;;;1.33;;
53287;SDS011;39172;45.550;12.072;2023-07-31T18:03:09;1.42;;;1.00;;
53287;SDS011;39172;45.550;12.072;2023-07-31T18:09:12;1.13;;;1.00;;
53287;SDS011;39172;45.550;12.072;2023-07-31T18:15:13;1.27;;;1.13;;
53287;SDS011;39172;45.550;12.072;2023-07-31T18:21:15;1.55;;;1.20;;
53287;SDS011;39172;45.550;12.072;2023-07-31T18:27:15;1.80;;;1.27;;
53287;SDS011;39172;45.550;12.072;2023-07-31T18:33:18;1.20;;;1.10;;
53287;SDS011;39172;45.550;12.072;2023-07-31T18:39:19;1.20;;;1.08;;
53287;SDS011;39172;45.550;12.072;2023-07-31T18:45:20;1.13;;;1.00;;
53287;SDS011;39172;45.550;12.072;2023-07-31T18:51:23;1.85;;;1.15;;
53287;SDS011;39172;45.550;12.072;2023-07-31T18:57:24;1.20;;;1.10;;
53287;SDS011;39172;45.550;12.072;2023-07-31T19:03:25;1.70;;;1.00;;
53287;SDS011;39172;45.550;12.072;2023-07-31T19:09:27;1.65;;;1.08;;
53287;SDS011;39172;45.550;12.072;2023-07-31T19:15:28;1.77;;;1.23;;
53287;SDS011;39172;45.550;12.072;2023-07-31T19:21:29;1.75;;;1.30;;
53287;SDS011;39172;45.550;12.072;2023-07-31T19:27:31;1.80;;;1.17;;
53287;SDS011;39172;45.550;12.072;2023-07-31T19:33:32;1.98;;;1.60;;
53287;SDS011;39172;45.550;12.072;2023-07-31T19:39:33;1.55;;;1.30;;
53287;SDS011;39172;45.550;12.072;2023-07-31T19:45:34;2.55;;;1.42;;
53287;SDS011;39172;45.550;12.072;2023-07-31T19:51:36;2.15;;;1.50;;
53287;SDS011;39172;45.550;12.072;2023-07-31T19:57:38;1.75;;;1.40;;
53287;SDS011;39172;45.550;12.072;2023-07-31T20:03:39;2.03;;;1.77;;
53287;SDS011;39172;45.550;12.072;2023-07-31T20:09:40;2.00;;;1.80;;
53287;SDS011;39172;45.550;12.072;2023-07-31T20:15:41;2.67;;;1.50;;
53287;SDS011;39172;45.550;12.072;2023-07-31T20:21:42;2.15;;;1.95;;
53287;SDS011;39172;45.550;12.072;2023-07-31T20:27:43;2.28;;;1.52;;
53287;SDS011;39172;45.550;12.072;2023-07-31T20:33:44;2.00;;;1.60;;
53287;SDS011;39172;45.550;12.072;2023-07-31T20:39:44;2.20;;;1.90;;
53287;SDS011;39172;45.550;12.072;2023-07-31T20:45:45;1.73;;;1.50;;
53287;SDS011;39172;45.550;12.072;2023-07-31T20:51:46;1.50;;;1.30;;
53287;SDS011;39172;45.550;12.072;2023-07-31T20:57:49;1.60;;;1.23;;
53287;SDS011;39172;45.550;12.072;2023-07-31T21:03:51;1.50;;;1.10;;
53287;SDS011;39172;45.550;12.072;2023-07-31T21:09:54;2.00;;;1.25;;
53287;SDS011;39172;45.550;12.072;2023-07-31T21:15:58;1.85;;;1.40;;
53287;SDS011;39172;45.550;12.072;2023-07-31T21:22:00;1.50;;;1.30;;
53287;SDS011;39172;45.550;12.072;2023-07-31T21:28:01;2.75;;;1.70;;
53287;SDS011;39172;45.550;12.072;2023-07-31T21:34:03;1.63;;;1.20;;
53287;SDS011;39172;45.550;12.072;2023-07-31T21:40:04;1.55;;;1.40;;
53287;SDS011;39172;45.550;12.072;2023-07-31T21:46:05;1.58;;;1.40;;
53287;SDS011;39172;45.550;12.072;2023-07-31T21:52:06;1.67;;;1.42;;
53287;SDS011;39172;45.550;12.072;2023-07-31T21:58:07;1.77;;;1.52;;
53287;SDS011;39172;45.550;12.072;2023-07-31T22:04:08;2.03;;;1.30;;
53287;SDS011;39172;45.550;12.072;2023-07-31T22:10:09;1.80;;;1.55;;
53287;SDS011;39172;45.550;12.072;2023-07-31T22:16:10;1.80;;;1.40;;
53287;SDS011;39172;45.550;12.072;2023-07-31T22:22:11;1.60;;;1.40;;
53287;SDS011;39172;45.550;12.072;2023-07-31T22:28:13;1.95;;;1.40;;
53287;SDS011;39172;45.550;12.072;2023-07-31T22:34:14;2.35;;;1.60;;
53287;SDS011;39172;45.550;12.072;2023-07-31T22:40:15;1.67;;;1.40;;
53287;SDS011;39172;45.550;12.072;2023-07-31T22:46:17;2.33;;;1.48;;
53287;SDS011;39172;45.550;12.072;2023-07-31T22:52:18;1.52;;;1.20;;
53287;SDS011;39172;45.550;12.072;2023-07-31T22:58:19;1.10;;;0.90;;
53287;SDS011;39172;45.550;12.072;2023-07-31T23:04:20;2.00;;;0.98;;
53287;SDS011;39172;45.550;12.072;2023-07-31T23:10:21;1.05;;;0.90;;
53287;SDS011;39172;45.550;12.072;2023-07-31T23:16:22;1.02;;;0.80;;
53287;SDS011;39172;45.550;12.072;2023-07-31T23:22:23;0.88;;;0.80;;
53287;SDS011;39172;45.550;12.072;2023-07-31T23:28:24;0.90;;;0.75;;
53287;SDS011;39172;45.550;12.072;2023-07-31T23:34:25;1.27;;;0.95;;
53287;SDS011;39172;45.550;12.072;2023-07-31T23:40:26;0.93;;;0.80;;
53287;SDS011;39172;45.550;12.072;2023-07-31T23:46:27;1.00;;;0.80;;
53287;SDS011;39172;45.550;12.072;2023-07-31T23:52:28;1.15;;;0.88;;
53287;SDS011;39172;45.550;12.072;2023-07-31T23:58:30;0.95;;;0.85;;
